sensor_id;sensor_type;location;lat;lon;timestamp;pressure;altitude;pressure_sealevel;temperature;humidity
18765;BME280;9511;54.242;12.448;2023-04-22T03:05:29;101374.00;;;3.95;91.84
18765;BME280;9511;54.242;12.448;2023-04-22T03:07:57;101376.81;;;3.98;91.88
18765;BME280;9511;54.242;12.448;2023-04-22T03:10:24;101372.22;;;3.94;91.94
18765;BME280;9511;54.242;12.448;2023-04-22T03:12:51;101371.31;;;3.94;92.22
18765;BME280;9511;54.242;12.448;2023-04-22T03:15:20;101366.97;;;3.94;92.44
18765;BME280;9511;54.242;12.448;2023-04-22T03:17:47;101359.31;;;3.97;92.71
18765;BME280;9511;54.242;12.448;2023-04-22T03:20:15;101359.13;;;3.94;92.41
18765;BME280;9511;54.242;12.448;2023-04-22T03:22:44;101355.50;;;3.92;92.52
18765;BME280;9511;54.242;12.448;2023-04-22T03:25:13;101357.94;;;3.89;92.84
18765;BME280;9511;54.242;12.448;2023-04-22T03:27:45;101363.00;;;3.86;92.99
18765;BME280;9511;54.242;12.448;2023-04-22T03:30:12;101345.56;;;3.87;93.15
18765;BME280;9511;54.242;12.448;2023-04-22T03:32:40;101355.97;;;3.85;92.82
18765;BME280;9511;54.242;12.448;2023-04-22T03:35:33;101350.59;;;3.84;92.99
18765;BME280;9511;54.242;12.448;2023-04-22T03:38:02;101350.59;;;3.84;93.46
18765;BME280;9511;54.242;12.448;2023-04-22T03:40:35;101352.31;;;3.83;93.56
18765;BME280;9511;54.242;12.448;2023-04-22T03:43:10;101350.59;;;3.84;93.30
18765;BME280;9511;54.242;12.448;2023-04-22T03:45:39;101345.28;;;3.82;93.99
18765;BME280;9511;54.242;12.448;2023-04-22T03:48:17;101346.72;;;3.77;93.81
18765;BME280;9511;54.242;12.448;2023-04-22T03:50:48;101337.88;;;3.75;94.02
18765;BME280;9511;54.242;12.448;2023-04-22T03:53:17;101334.66;;;3.79;93.66
18765;BME280;9511;54.242;12.448;2023-04-22T03:55:45;101329.41;;;3.79;93.95
18765;BME280;9511;54.242;12.448;2023-04-22T03:58:14;101337.34;;;3.81;94.66
18765;BME280;9511;54.242;12.448;2023-04-22T04:00:42;101337.34;;;3.81;94.23
18765;BME280;9511;54.242;12.448;2023-04-22T04:03:14;101336.44;;;3.80;94.36
18765;BME280;9511;54.242;12.448;2023-04-22T04:05:42;101338.88;;;3.77;94.60
18765;BME280;9511;54.242;12.448;2023-04-22T04:08:09;101339.69;;;3.76;93.96
18765;BME280;9511;54.242;12.448;2023-04-22T04:10:38;101332.56;;;3.73;93.93
18765;BME280;9511;54.242;12.448;2023-04-22T04:13:06;101328.84;;;3.70;94.37
18765;BME280;9511;54.242;12.448;2023-04-22T04:15:46;101332.44;;;3.72;94.19
18765;BME280;9511;54.242;12.448;2023-04-22T04:18:17;101330.84;;;3.74;93.91
18765;BME280;9511;54.242;12.448;2023-04-22T04:20:46;101331.31;;;3.82;94.48
18765;BME280;9511;54.242;12.448;2023-04-22T04:23:14;101322.06;;;4.02;94.68
18765;BME280;9511;54.242;12.448;2023-04-22T04:25:43;101327.38;;;4.18;95.32
18765;BME280;9511;54.242;12.448;2023-04-22T04:28:13;101325.59;;;4.32;95.20
18765;BME280;9511;54.242;12.448;2023-04-22T04:30:40;101324.94;;;4.50;95.10
18765;BME280;9511;54.242;12.448;2023-04-22T04:33:08;101324.59;;;4.59;94.58
18765;BME280;9511;54.242;12.448;2023-04-22T04:35:39;101318.16;;;4.69;94.69
18765;BME280;9511;54.242;12.448;2023-04-22T04:38:08;101309.94;;;4.77;94.34
18765;BME280;9511;54.242;12.448;2023-04-22T04:40:37;101313.94;;;4.87;94.06
18765;BME280;9511;54.242;12.448;2023-04-22T04:43:10;101325.78;;;4.95;93.67
18765;BME280;9511;54.242;12.448;2023-04-22T04:45:47;101312.28;;;5.04;93.18
18765;BME280;9511;54.242;12.448;2023-04-22T04:48:15;101307.47;;;5.12;93.21
18765;BME280;9511;54.242;12.448;2023-04-22T04:50:50;101307.81;;;5.18;92.83
18765;BME280;9511;54.242;12.448;2023-04-22T04:53:20;101304.91;;;5.28;92.38
18765;BME280;9511;54.242;12.448;2023-04-22T04:55:48;101306.53;;;5.42;92.07
18765;BME280;9511;54.242;12.448;2023-04-22T04:58:22;101302.78;;;5.53;92.03
18765;BME280;9511;54.242;12.448;2023-04-22T05:01:02;101308.84;;;5.69;91.63
18765;BME280;9511;54.242;12.448;2023-04-22T05:03:30;101306.88;;;5.81;91.47
18765;BME280;9511;54.242;12.448;2023-04-22T05:05:58;101300.00;;;5.99;91.33
18765;BME280;9511;54.242;12.448;2023-04-22T05:08:25;101305.03;;;6.12;91.00
18765;BME280;9511;54.242;12.448;2023-04-22T05:10:59;101303.22;;;6.28;90.35
18765;BME280;9511;54.242;12.448;2023-04-22T05:13:28;101297.25;;;6.48;90.44
18765;BME280;9511;54.242;12.448;2023-04-22T05:15:56;101300.09;;;6.71;89.78
18765;BME280;9511;54.242;12.448;2023-04-22T05:18:25;101298.97;;;6.83;88.91
18765;BME280;9511;54.242;12.448;2023-04-22T05:20:53;101302.13;;;6.94;87.95
18765;BME280;9511;54.242;12.448;2023-04-22T05:23:22;101302.72;;;7.06;87.18
18765;BME280;9511;54.242;12.448;2023-04-22T05:25:52;101303.13;;;7.15;86.50
18765;BME280;9511;54.242;12.448;2023-04-22T05:28:19;101302.06;;;7.30;86.03
18765;BME280;9511;54.242;12.448;2023-04-22T05:30:53;101309.81;;;7.27;85.00
18765;BME280;9511;54.242;12.448;2023-04-22T05:33:20;101311.59;;;7.28;85.48
18765;BME280;9511;54.242;12.448;2023-04-22T05:35:48;101302.69;;;7.43;85.19
18765;BME280;9511;54.242;12.448;2023-04-22T05:38:17;101295.31;;;7.54;85.27
18765;BME280;9511;54.242;12.448;2023-04-22T05:40:45;101292.38;;;7.67;84.36
18765;BME280;9511;54.242;12.448;2023-04-22T05:43:14;101283.22;;;7.79;84.12
18765;BME280;9511;54.242;12.448;2023-04-22T05:45:46;101284.63;;;7.90;83.10
18765;BME280;9511;54.242;12.448;2023-04-22T05:48:16;101285.03;;;7.99;82.63
18765;BME280;9511;54.242;12.448;2023-04-22T05:50:55;101274.06;;;8.09;82.77
18765;BME280;9511;54.242;12.448;2023-04-22T05:53:22;101282.28;;;8.17;82.29
18765;BME280;9511;54.242;12.448;2023-04-22T05:55:50;101268.78;;;8.30;81.29
18765;BME280;9511;54.242;12.448;2023-04-22T05:58:17;101269.28;;;8.41;80.76
18765;BME280;9511;54.242;12.448;2023-04-22T06:00:50;101269.22;;;8.60;80.22
18765;BME280;9511;54.242;12.448;2023-04-22T06:03:38;101271.97;;;8.63;79.79
18765;BME280;9511;54.242;12.448;2023-04-22T06:06:06;101274.91;;;8.71;79.93
18765;BME280;9511;54.242;12.448;2023-04-22T06:08:34;101270.25;;;8.86;79.30
18765;BME280;9511;54.242;12.448;2023-04-22T06:11:01;101269.84;;;8.98;79.63
18765;BME280;9511;54.242;12.448;2023-04-22T06:13:31;101270.50;;;9.15;79.09
18765;BME280;9511;54.242;12.448;2023-04-22T06:15:59;101267.06;;;9.17;77.52
18765;BME280;9511;54.242;12.448;2023-04-22T06:18:27;101265.75;;;9.28;77.28
18765;BME280;9511;54.242;12.448;2023-04-22T06:20:56;101268.13;;;9.45;77.60
18765;BME280;9511;54.242;12.448;2023-04-22T06:23:23;101265.72;;;9.51;76.74
18765;BME280;9511;54.242;12.448;2023-04-22T06:25:51;101265.00;;;9.55;76.33
18765;BME280;9511;54.242;12.448;2023-04-22T06:28:18;101265.38;;;9.64;75.83
18765;BME280;9511;54.242;12.448;2023-04-22T06:30:48;101252.28;;;9.69;75.99
18765;BME280;9511;54.242;12.448;2023-04-22T06:33:16;101252.63;;;9.78;75.40
18765;BME280;9511;54.242;12.448;2023-04-22T06:35:43;101247.03;;;9.93;74.96
18765;BME280;9511;54.242;12.448;2023-04-22T06:38:12;101246.56;;;10.04;74.78
18765;BME280;9511;54.242;12.448;2023-04-22T06:40:51;101248.94;;;10.22;74.53
18765;BME280;9511;54.242;12.448;2023-04-22T06:43:23;101245.88;;;10.35;73.57
18765;BME280;9511;54.242;12.448;2023-04-22T06:46:09;101244.59;;;10.50;73.08
18765;BME280;9511;54.242;12.448;2023-04-22T06:48:55;101246.69;;;10.60;72.94
18765;BME280;9511;54.242;12.448;2023-04-22T06:51:45;101245.34;;;10.73;72.32
18765;BME280;9511;54.242;12.448;2023-04-22T06:54:14;101253.69;;;10.85;71.97
18765;BME280;9511;54.242;12.448;2023-04-22T06:56:42;101245.97;;;10.93;71.12
18765;BME280;9511;54.242;12.448;2023-04-22T06:59:09;101235.88;;;11.08;71.26
18765;BME280;9511;54.242;12.448;2023-04-22T07:01:37;101236.81;;;11.10;70.33
18765;BME280;9511;54.242;12.448;2023-04-22T07:04:04;101231.91;;;11.24;70.19
18765;BME280;9511;54.242;12.448;2023-04-22T07:06:31;101229.03;;;11.46;70.44
18765;BME280;9511;54.242;12.448;2023-04-22T07:08:59;101217.13;;;11.62;70.73
18765;BME280;9511;54.242;12.448;2023-04-22T07:11:28;101216.75;;;11.80;70.59
18765;BME280;9511;54.242;12.448;2023-04-22T07:14:07;101217.94;;;11.89;68.94
18765;BME280;9511;54.242;12.448;2023-04-22T07:16:34;101218.00;;;11.92;68.70
18765;BME280;9511;54.242;12.448;2023-04-22T07:19:04;101215.69;;;12.05;68.54
18765;BME280;9511;54.242;12.448;2023-04-22T07:21:31;101221.44;;;12.21;68.12
18765;BME280;9511;54.242;12.448;2023-04-22T07:23:59;101221.59;;;12.28;67.02
18765;BME280;9511;54.242;12.448;2023-04-22T07:26:27;101218.38;;;12.41;66.26
18765;BME280;9511;54.242;12.448;2023-04-22T07:28:56;101217.66;;;12.48;65.88
18765;BME280;9511;54.242;12.448;2023-04-22T07:31:24;101223.38;;;12.65;66.25
18765;BME280;9511;54.242;12.448;2023-04-22T07:33:51;101225.41;;;12.75;64.29
18765;BME280;9511;54.242;12.448;2023-04-22T07:36:18;101218.56;;;12.85;64.04
18765;BME280;9511;54.242;12.448;2023-04-22T07:38:46;101217.03;;;12.96;63.70
18765;BME280;9511;54.242;12.448;2023-04-22T07:41:13;101217.34;;;13.10;63.62
18765;BME280;9511;54.242;12.448;2023-04-22T07:43:42;101215.16;;;13.29;63.91
18765;BME280;9511;54.242;12.448;2023-04-22T07:46:09;101210.16;;;13.45;63.10
18765;BME280;9511;54.242;12.448;2023-04-22T07:48:37;101200.78;;;13.64;62.47
18765;BME280;9511;54.242;12.448;2023-04-22T07:51:04;101203.63;;;13.73;61.72
18765;BME280;9511;54.242;12.448;2023-04-22T07:53:31;101200.28;;;13.83;62.13
18765;BME280;9511;54.242;12.448;2023-04-22T07:55:59;101197.84;;;13.95;61.29
18765;BME280;9511;54.242;12.448;2023-04-22T07:58:27;101198.19;;;14.14;61.06
18765;BME280;9511;54.242;12.448;2023-04-22T08:00:56;101194.84;;;14.27;60.86
18765;BME280;9511;54.242;12.448;2023-04-22T08:03:23;101195.06;;;14.39;59.59
18765;BME280;9511;54.242;12.448;2023-04-22T08:05:50;101194.31;;;14.46;58.70
18765;BME280;9511;54.242;12.448;2023-04-22T08:08:18;101191.66;;;14.46;58.19
18765;BME280;9511;54.242;12.448;2023-04-22T08:10:45;101174.91;;;14.52;58.04
18765;BME280;9511;54.242;12.448;2023-04-22T08:13:12;101178.59;;;14.61;58.78
18765;BME280;9511;54.242;12.448;2023-04-22T08:15:40;101182.38;;;14.76;57.86
18765;BME280;9511;54.242;12.448;2023-04-22T08:18:08;101181.63;;;14.86;57.60
18765;BME280;9511;54.242;12.448;2023-04-22T08:20:36;101169.28;;;14.93;58.03
18765;BME280;9511;54.242;12.448;2023-04-22T08:23:03;101171.31;;;15.13;57.01
18765;BME280;9511;54.242;12.448;2023-04-22T08:25:33;101163.38;;;15.17;56.01
18765;BME280;9511;54.242;12.448;2023-04-22T08:28:01;101159.09;;;15.31;56.71
18765;BME280;9511;54.242;12.448;2023-04-22T08:30:28;101152.13;;;15.39;56.52
18765;BME280;9511;54.242;12.448;2023-04-22T08:32:55;101153.22;;;15.58;54.90
18765;BME280;9511;54.242;12.448;2023-04-22T08:35:24;101155.25;;;15.80;54.96
18765;BME280;9511;54.242;12.448;2023-04-22T08:37:51;101149.19;;;15.98;54.69
18765;BME280;9511;54.242;12.448;2023-04-22T08:40:19;101139.47;;;16.02;54.18
18765;BME280;9511;54.242;12.448;2023-04-22T08:42:47;101143.91;;;16.04;54.01
18765;BME280;9511;54.242;12.448;2023-04-22T08:45:14;101143.31;;;16.37;53.83
18765;BME280;9511;54.242;12.448;2023-04-22T08:47:43;101135.34;;;16.42;52.88
18765;BME280;9511;54.242;12.448;2023-04-22T08:50:10;101136.34;;;16.58;52.62
18765;BME280;9511;54.242;12.448;2023-04-22T08:52:40;101135.44;;;16.62;52.69
18765;BME280;9511;54.242;12.448;2023-04-22T08:55:08;101125.81;;;16.82;53.21
18765;BME280;9511;54.242;12.448;2023-04-22T08:57:37;101133.13;;;17.15;53.44
18765;BME280;9511;54.242;12.448;2023-04-22T09:00:06;101128.69;;;17.30;52.81
18765;BME280;9511;54.242;12.448;2023-04-22T09:02:36;101127.88;;;17.44;52.45
18765;BME280;9511;54.242;12.448;2023-04-22T09:05:05;101118.97;;;17.55;52.32
18765;BME280;9511;54.242;12.448;2023-04-22T09:07:32;101121.66;;;17.62;50.79
18765;BME280;9511;54.242;12.448;2023-04-22T09:10:03;101118.06;;;17.45;51.01
18765;BME280;9511;54.242;12.448;2023-04-22T09:12:30;101121.66;;;17.65;51.98
18765;BME280;9511;54.242;12.448;2023-04-22T09:14:57;101118.16;;;17.88;51.32
18765;BME280;9511;54.242;12.448;2023-04-22T09:17:35;101110.16;;;18.09;51.28
18765;BME280;9511;54.242;12.448;2023-04-22T09:20:04;101118.16;;;17.94;49.88
18765;BME280;9511;54.242;12.448;2023-04-22T09:22:37;101110.13;;;18.06;50.07
18765;BME280;9511;54.242;12.448;2023-04-22T09:25:14;101104.78;;;18.18;49.47
18765;BME280;9511;54.242;12.448;2023-04-22T09:27:42;101103.88;;;18.47;50.74
18765;BME280;9511;54.242;12.448;2023-04-22T09:30:09;101091.34;;;18.49;49.95
18765;BME280;9511;54.242;12.448;2023-04-22T09:32:38;101091.34;;;18.49;49.20
18765;BME280;9511;54.242;12.448;2023-04-22T09:35:06;101087.81;;;18.47;48.46
18765;BME280;9511;54.242;12.448;2023-04-22T09:37:33;101091.34;;;18.67;48.50
18765;BME280;9511;54.242;12.448;2023-04-22T09:40:01;101085.06;;;18.65;47.73
18765;BME280;9511;54.242;12.448;2023-04-22T09:42:30;101082.38;;;18.74;48.13
18765;BME280;9511;54.242;12.448;2023-04-22T09:44:57;101073.44;;;18.81;48.38
18765;BME280;9511;54.242;12.448;2023-04-22T09:47:34;101066.28;;;18.80;48.15
18765;BME280;9511;54.242;12.448;2023-04-22T09:50:03;101064.38;;;19.10;47.69
18765;BME280;9511;54.242;12.448;2023-04-22T09:52:31;101064.38;;;19.07;47.60
18765;BME280;9511;54.242;12.448;2023-04-22T09:54:59;101058.88;;;19.34;47.13
18765;BME280;9511;54.242;12.448;2023-04-22T09:57:26;101054.31;;;19.46;47.68
18765;BME280;9511;54.242;12.448;2023-04-22T09:59:57;101047.94;;;19.65;47.34
18765;BME280;9511;54.242;12.448;2023-04-22T10:02:27;101051.56;;;19.58;45.92
18765;BME280;9511;54.242;12.448;2023-04-22T10:04:55;101053.25;;;19.71;46.88
18765;BME280;9511;54.242;12.448;2023-04-22T10:07:23;101049.75;;;19.63;46.19
18765;BME280;9511;54.242;12.448;2023-04-22T10:09:56;101043.50;;;19.62;45.60
18765;BME280;9511;54.242;12.448;2023-04-22T10:12:23;101042.53;;;19.71;46.92
18765;BME280;9511;54.242;12.448;2023-04-22T10:14:52;101030.56;;;20.10;46.55
18765;BME280;9511;54.242;12.448;2023-04-22T10:17:21;101026.88;;;20.17;45.39
18765;BME280;9511;54.242;12.448;2023-04-22T10:19:48;101024.31;;;20.07;45.44
18765;BME280;9511;54.242;12.448;2023-04-22T10:22:16;101026.88;;;20.21;44.53
18765;BME280;9511;54.242;12.448;2023-04-22T10:24:46;101024.38;;;20.02;45.27
18765;BME280;9511;54.242;12.448;2023-04-22T10:27:20;101017.91;;;20.22;44.69
18765;BME280;9511;54.242;12.448;2023-04-22T10:29:47;101025.16;;;20.15;44.69
18765;BME280;9511;54.242;12.448;2023-04-22T10:32:26;101028.50;;;20.37;44.26
18765;BME280;9511;54.242;12.448;2023-04-22T10:35:14;101018.78;;;20.25;44.40
18765;BME280;9511;54.242;12.448;2023-04-22T10:37:42;101010.78;;;20.19;44.62
18765;BME280;9511;54.242;12.448;2023-04-22T10:40:13;101002.50;;;20.39;43.99
18765;BME280;9511;54.242;12.448;2023-04-22T10:42:45;100998.78;;;20.54;44.31
18765;BME280;9511;54.242;12.448;2023-04-22T10:45:14;100986.94;;;20.68;44.07
18765;BME280;9511;54.242;12.448;2023-04-22T10:47:43;100997.81;;;20.59;44.42
18765;BME280;9511;54.242;12.448;2023-04-22T10:50:17;100988.72;;;20.71;43.64
18765;BME280;9511;54.242;12.448;2023-04-22T10:52:48;100985.84;;;20.83;44.01
18765;BME280;9511;54.242;12.448;2023-04-22T10:55:16;100988.53;;;20.83;43.27
18765;BME280;9511;54.242;12.448;2023-04-22T10:57:44;100981.97;;;21.06;43.74
18765;BME280;9511;54.242;12.448;2023-04-22T11:00:23;100980.22;;;21.02;42.91
18765;BME280;9511;54.242;12.448;2023-04-22T11:02:54;100986.47;;;21.02;43.06
18765;BME280;9511;54.242;12.448;2023-04-22T11:05:32;100978.25;;;21.13;43.57
18765;BME280;9511;54.242;12.448;2023-04-22T11:08:02;100970.31;;;21.04;41.65
18765;BME280;9511;54.242;12.448;2023-04-22T11:10:34;100964.97;;;21.02;41.97
18765;BME280;9511;54.242;12.448;2023-04-22T11:13:06;100962.03;;;21.19;43.00
18765;BME280;9511;54.242;12.448;2023-04-22T11:15:35;100956.44;;;21.34;41.95
18765;BME280;9511;54.242;12.448;2023-04-22T11:18:08;100950.28;;;21.25;41.87
18765;BME280;9511;54.242;12.448;2023-04-22T11:20:37;100948.16;;;21.46;41.33
18765;BME280;9511;54.242;12.448;2023-04-22T11:23:04;100947.22;;;21.51;41.87
18765;BME280;9511;54.242;12.448;2023-04-22T11:25:32;100951.56;;;21.56;42.06
18765;BME280;9511;54.242;12.448;2023-04-22T11:27:59;100957.75;;;21.61;41.28
18765;BME280;9511;54.242;12.448;2023-04-22T11:30:27;100951.56;;;21.58;41.43
18765;BME280;9511;54.242;12.448;2023-04-22T11:32:58;100953.22;;;21.65;41.75
18765;BME280;9511;54.242;12.448;2023-04-22T11:35:29;100949.09;;;21.96;41.81
18765;BME280;9511;54.242;12.448;2023-04-22T11:37:58;100953.59;;;21.94;39.47
18765;BME280;9511;54.242;12.448;2023-04-22T11:40:28;100945.47;;;21.97;40.22
18765;BME280;9511;54.242;12.448;2023-04-22T11:42:57;100945.66;;;22.35;40.82
18765;BME280;9511;54.242;12.448;2023-04-22T11:45:26;100940.97;;;22.44;39.93
18765;BME280;9511;54.242;12.448;2023-04-22T11:47:53;100939.97;;;22.04;39.49
18765;BME280;9511;54.242;12.448;2023-04-22T11:50:23;100936.75;;;22.30;39.39
18765;BME280;9511;54.242;12.448;2023-04-22T11:52:54;100930.88;;;22.09;39.37
18765;BME280;9511;54.242;12.448;2023-04-22T11:55:23;100926.53;;;22.00;39.70
18765;BME280;9511;54.242;12.448;2023-04-22T11:57:54;100935.97;;;22.24;39.30
18765;BME280;9511;54.242;12.448;2023-04-22T12:00:22;100934.72;;;22.42;40.02
18765;BME280;9511;54.242;12.448;2023-04-22T12:02:55;100927.66;;;22.35;39.49
18765;BME280;9511;54.242;12.448;2023-04-22T12:05:38;100925.75;;;22.40;38.93
18765;BME280;9511;54.242;12.448;2023-04-22T12:08:09;100923.47;;;22.22;39.31
18765;BME280;9511;54.242;12.448;2023-04-22T12:10:42;100917.25;;;22.17;38.89
18765;BME280;9511;54.242;12.448;2023-04-22T12:13:17;100919.72;;;21.81;39.83
18765;BME280;9511;54.242;12.448;2023-04-22T12:15:45;100920.81;;;22.20;40.06
18765;BME280;9511;54.242;12.448;2023-04-22T12:18:12;100922.66;;;22.17;40.48
18765;BME280;9511;54.242;12.448;2023-04-22T12:20:40;100916.50;;;22.10;40.64
18765;BME280;9511;54.242;12.448;2023-04-22T12:23:13;100905.88;;;22.01;40.56
18765;BME280;9511;54.242;12.448;2023-04-22T12:25:41;100901.06;;;22.18;39.27
18765;BME280;9511;54.242;12.448;2023-04-22T12:28:09;100903.00;;;22.55;40.81
18765;BME280;9511;54.242;12.448;2023-04-22T12:30:37;100904.75;;;22.56;38.77
18765;BME280;9511;54.242;12.448;2023-04-22T12:33:04;100895.19;;;22.43;38.87
18765;BME280;9511;54.242;12.448;2023-04-22T12:35:32;100888.44;;;23.02;38.18
18765;BME280;9511;54.242;12.448;2023-04-22T12:38:00;100889.91;;;23.16;38.42
18765;BME280;9511;54.242;12.448;2023-04-22T12:40:28;100890.03;;;23.47;39.64
18765;BME280;9511;54.242;12.448;2023-04-22T12:42:56;100883.03;;;23.38;37.93
18765;BME280;9511;54.242;12.448;2023-04-22T12:45:23;100887.59;;;23.36;38.90
18765;BME280;9511;54.242;12.448;2023-04-22T12:47:50;100883.56;;;23.18;38.08
18765;BME280;9511;54.242;12.448;2023-04-22T12:50:20;100884.06;;;23.34;39.19
18765;BME280;9511;54.242;12.448;2023-04-22T12:52:47;100879.00;;;23.20;37.74
18765;BME280;9511;54.242;12.448;2023-04-22T12:55:14;100872.81;;;23.15;39.70
18765;BME280;9511;54.242;12.448;2023-04-22T12:57:47;100870.59;;;23.32;40.08
18765;BME280;9511;54.242;12.448;2023-04-22T13:00:15;100870.38;;;23.76;39.85
18765;BME280;9511;54.242;12.448;2023-04-22T13:02:44;100866.03;;;23.70;38.12
18765;BME280;9511;54.242;12.448;2023-04-22T13:05:12;100863.16;;;24.07;38.36
18765;BME280;9511;54.242;12.448;2023-04-22T13:07:40;100863.69;;;23.89;38.80
18765;BME280;9511;54.242;12.448;2023-04-22T13:10:09;100854.81;;;23.84;38.85
18765;BME280;9511;54.242;12.448;2023-04-22T13:12:38;100857.81;;;23.75;37.99
18765;BME280;9511;54.242;12.448;2023-04-22T13:15:08;100857.47;;;23.87;38.55
18765;BME280;9511;54.242;12.448;2023-04-22T13:17:36;100853.31;;;23.74;39.88
18765;BME280;9511;54.242;12.448;2023-04-22T13:20:04;100846.75;;;24.15;38.52
18765;BME280;9511;54.242;12.448;2023-04-22T13:22:34;100839.31;;;23.91;37.71
18765;BME280;9511;54.242;12.448;2023-04-22T13:25:02;100837.25;;;24.00;38.58
18765;BME280;9511;54.242;12.448;2023-04-22T13:27:29;100831.13;;;23.61;38.44
18765;BME280;9511;54.242;12.448;2023-04-22T13:29:57;100826.97;;;23.82;37.87
18765;BME280;9511;54.242;12.448;2023-04-22T13:32:25;100824.31;;;24.11;37.96
18765;BME280;9511;54.242;12.448;2023-04-22T13:34:53;100818.53;;;23.63;37.81
18765;BME280;9511;54.242;12.448;2023-04-22T13:37:20;100824.44;;;23.76;37.49
18765;BME280;9511;54.242;12.448;2023-04-22T13:39:48;100813.53;;;23.79;39.07
18765;BME280;9511;54.242;12.448;2023-04-22T13:42:16;100822.59;;;23.78;38.90
18765;BME280;9511;54.242;12.448;2023-04-22T13:44:43;100820.38;;;23.92;37.72
18765;BME280;9511;54.242;12.448;2023-04-22T13:47:10;100812.47;;;24.16;38.34
18765;BME280;9511;54.242;12.448;2023-04-22T13:49:39;100816.56;;;24.29;37.34
18765;BME280;9511;54.242;12.448;2023-04-22T13:52:06;100817.13;;;24.10;37.74
18765;BME280;9511;54.242;12.448;2023-04-22T13:54:34;100805.94;;;24.23;37.59
18765;BME280;9511;54.242;12.448;2023-04-22T13:57:01;100805.53;;;23.76;37.55
18765;BME280;9511;54.242;12.448;2023-04-22T13:59:29;100803.88;;;24.31;38.25
18765;BME280;9511;54.242;12.448;2023-04-22T14:01:57;100805.75;;;23.99;37.91
18765;BME280;9511;54.242;12.448;2023-04-22T14:04:24;100803.41;;;23.87;37.04
18765;BME280;9511;54.242;12.448;2023-04-22T14:06:52;100796.69;;;23.71;36.36
18765;BME280;9511;54.242;12.448;2023-04-22T14:09:20;100790.75;;;23.89;37.38
18765;BME280;9511;54.242;12.448;2023-04-22T14:11:47;100779.69;;;23.98;37.98
18765;BME280;9511;54.242;12.448;2023-04-22T14:14:14;100786.84;;;24.29;37.86
18765;BME280;9511;54.242;12.448;2023-04-22T14:16:41;100777.41;;;24.44;36.99
18765;BME280;9511;54.242;12.448;2023-04-22T14:19:09;100775.06;;;24.59;37.27
18765;BME280;9511;54.242;12.448;2023-04-22T14:21:36;100775.19;;;24.56;36.06
18765;BME280;9511;54.242;12.448;2023-04-22T14:24:05;100758.84;;;24.59;36.43
18765;BME280;9511;54.242;12.448;2023-04-22T14:26:32;100765.69;;;25.49;37.24
18765;BME280;9511;54.242;12.448;2023-04-22T14:28:59;100761.88;;;25.03;37.33
18765;BME280;9511;54.242;12.448;2023-04-22T14:31:27;100761.81;;;25.31;36.35
18765;BME280;9511;54.242;12.448;2023-04-22T14:33:54;100753.13;;;24.69;35.40
18765;BME280;9511;54.242;12.448;2023-04-22T14:36:22;100759.25;;;24.18;36.50
18765;BME280;9511;54.242;12.448;2023-04-22T14:38:49;100754.16;;;24.64;36.74
18765;BME280;9511;54.242;12.448;2023-04-22T14:41:18;100754.16;;;24.64;36.15
18765;BME280;9511;54.242;12.448;2023-04-22T14:43:46;100749.69;;;24.63;36.43
18765;BME280;9511;54.242;12.448;2023-04-22T14:46:13;100737.97;;;25.18;35.80
18765;BME280;9511;54.242;12.448;2023-04-22T14:48:40;100737.06;;;24.90;36.91
18765;BME280;9511;54.242;12.448;2023-04-22T14:51:08;100729.09;;;25.37;36.12
18765;BME280;9511;54.242;12.448;2023-04-22T14:53:35;100728.66;;;24.98;35.99
18765;BME280;9511;54.242;12.448;2023-04-22T14:56:03;100729.78;;;25.19;35.66
18765;BME280;9511;54.242;12.448;2023-04-22T14:58:31;100726.69;;;25.30;36.71
18765;BME280;9511;54.242;12.448;2023-04-22T15:00:59;100722.69;;;25.40;35.92
18765;BME280;9511;54.242;12.448;2023-04-22T15:03:26;100716.09;;;25.24;36.22
18765;BME280;9511;54.242;12.448;2023-04-22T15:05:54;100729.53;;;25.50;34.93
18765;BME280;9511;54.242;12.448;2023-04-22T15:08:21;100721.16;;;25.33;35.18
18765;BME280;9511;54.242;12.448;2023-04-22T15:10:50;100715.56;;;24.86;35.83
18765;BME280;9511;54.242;12.448;2023-04-22T15:13:17;100721.72;;;24.91;35.22
18765;BME280;9511;54.242;12.448;2023-04-22T15:15:48;100716.81;;;25.02;35.52
18765;BME280;9511;54.242;12.448;2023-04-22T15:18:15;100718.75;;;25.49;34.64
18765;BME280;9511;54.242;12.448;2023-04-22T15:20:42;100707.41;;;25.62;34.58
18765;BME280;9511;54.242;12.448;2023-04-22T15:23:10;100705.72;;;25.83;35.61
18765;BME280;9511;54.242;12.448;2023-04-22T15:25:37;100714.38;;;25.69;35.71
18765;BME280;9511;54.242;12.448;2023-04-22T15:28:05;100712.94;;;25.59;35.53
18765;BME280;9511;54.242;12.448;2023-04-22T15:30:32;100701.50;;;25.01;35.20
18765;BME280;9511;54.242;12.448;2023-04-22T15:33:01;100701.72;;;25.45;35.11
18765;BME280;9511;54.242;12.448;2023-04-22T15:35:29;100697.63;;;25.35;34.50
18765;BME280;9511;54.242;12.448;2023-04-22T15:37:57;100694.19;;;25.30;34.99
18765;BME280;9511;54.242;12.448;2023-04-22T15:40:25;100688.34;;;24.90;35.44
18765;BME280;9511;54.242;12.448;2023-04-22T15:42:52;100685.59;;;24.92;35.80
18765;BME280;9511;54.242;12.448;2023-04-22T15:45:20;100695.06;;;25.05;35.73
18765;BME280;9511;54.242;12.448;2023-04-22T15:47:48;100683.66;;;24.96;35.16
18765;BME280;9511;54.242;12.448;2023-04-22T15:50:18;100682.66;;;24.98;34.68
18765;BME280;9511;54.242;12.448;2023-04-22T15:52:48;100682.56;;;24.48;35.74
18765;BME280;9511;54.242;12.448;2023-04-22T15:55:15;100674.31;;;24.53;35.36
18765;BME280;9511;54.242;12.448;2023-04-22T15:57:42;100680.88;;;25.24;34.77
18765;BME280;9511;54.242;12.448;2023-04-22T16:00:10;100673.00;;;25.18;35.04
18765;BME280;9511;54.242;12.448;2023-04-22T16:02:43;100668.84;;;24.81;35.15
18765;BME280;9511;54.242;12.448;2023-04-22T16:05:11;100656.78;;;24.64;35.26
18765;BME280;9511;54.242;12.448;2023-04-22T16:07:41;100664.50;;;25.27;34.90